Time;durP1;ratioP1;P1;durP2;ratioP2;P2;SDS_P1;SDS_P2;PMS_P1;PMS_P2;Temp;Humidity;BMP_temperature;BMP_pressure;BME280_temperature;BME280_humidity;BME280_pressure;Samples;Min_cycle;Max_cycle;Signal;HPM_P1;HPM_P2
2023/10/12 00:01:57;;;;;;;;;;;20.80;66.00;;;;;;6317475;28;20326;-67
2023/10/12 00:05:00;;;;;;;;;;;20.80;65.80;;;;;;6317335;28;20427;-67
2023/10/12 00:08:09;;;;;;;;;;;20.80;65.70;;;;;;6316471;28;19998;-68
2023/10/12 00:11:11;;;;;;;;;;;20.80;65.80;;;;;;6313482;28;19912;-68
2023/10/12 00:14:14;;;;;;;;;;;20.80;66.00;;;;;;6317100;28;20015;-67
2023/10/12 00:17:17;;;;;;;;;;;20.80;66.90;;;;;;6317365;28;20329;-67
2023/10/12 00:20:24;;;;;;;;;;;20.80;66.10;;;;;;6316508;28;19912;-68
2023/10/12 00:23:26;;;;;;;;;;;20.80;66.10;;;;;;6317686;28;20298;-68
2023/10/12 00:26:30;;;;;;;;;;;20.80;65.60;;;;;;6316714;28;19908;-67
2023/10/12 00:29:32;;;;;;;;;;;20.80;65.90;;;;;;6313008;28;19943;-68
2023/10/12 00:32:32;;;;;;;;;;;20.80;65.80;;;;;;6316771;28;19908;-68
2023/10/12 00:35:34;;;;;;;;;;;20.80;65.60;;;;;;6317257;28;19916;-68
2023/10/12 00:38:38;;;;;;;;;;;20.80;65.90;;;;;;6314943;28;19920;-68
2023/10/12 00:41:45;;;;;;;;;;;20.80;65.60;;;;;;6316825;28;19908;-67
2023/10/12 00:44:52;;;;;;;;;;;20.80;65.80;;;;;;6312025;28;19912;-68
2023/10/12 00:47:53;;;;;;;;;;;20.80;66.10;;;;;;6317642;28;19908;-68
2023/10/12 00:50:56;;;;;;;;;;;20.80;66.10;;;;;;6321110;28;19995;-68
2023/10/12 00:53:57;;;;;;;;;;;20.80;65.70;;;;;;6321384;28;19908;-68
2023/10/12 00:57:01;;;;;;;;;;;20.80;66.10;;;;;;6321680;28;19957;-68
2023/10/12 01:00:15;;;;;;;;;;;20.80;66.10;;;;;;6320902;28;20395;-68
2023/10/12 01:03:30;;;;;;;;;;;20.80;66.00;;;;;;6319656;28;19912;-67
2023/10/12 01:06:33;;;;;;;;;;;20.80;66.20;;;;;;6320930;28;19908;-68
2023/10/12 01:09:39;;;;;;;;;;;20.80;66.00;;;;;;6319471;28;19962;-67
2023/10/12 01:12:40;;;;;;;;;;;20.80;65.60;;;;;;6320783;28;19916;-67
2023/10/12 01:15:40;;;;;;;;;;;20.80;65.50;;;;;;6320745;28;19957;-67
2023/10/12 01:18:44;;;;;;;;;;;20.80;65.60;;;;;;6320542;28;19927;-68
2023/10/12 01:21:45;;;;;;;;;;;20.80;65.80;;;;;;6320719;28;19916;-68
2023/10/12 01:24:58;;;;;;;;;;;20.80;66.10;;;;;;6320791;28;20435;-68
2023/10/12 01:28:05;;;;;;;;;;;20.80;66.10;;;;;;6312301;28;19916;-67
2023/10/12 01:31:06;;;;;;;;;;;20.80;66.20;;;;;;6320351;28;19926;-67
2023/10/12 01:34:07;;;;;;;;;;;20.80;66.20;;;;;;6319994;28;19912;-67
2023/10/12 01:37:21;;;;;;;;;;;20.80;66.20;;;;;;6320288;28;19909;-67
2023/10/12 01:40:24;;;;;;;;;;;20.80;65.60;;;;;;6316133;28;19929;-67
2023/10/12 01:43:28;;;;;;;;;;;20.80;65.70;;;;;;6312585;28;20303;-68
2023/10/12 01:46:28;;;;;;;;;;;20.80;65.70;;;;;;6318575;28;19916;-67
2023/10/12 01:49:30;;;;;;;;;;;20.80;65.80;;;;;;6318363;28;19923;-68
2023/10/12 01:52:31;;;;;;;;;;;20.80;66.00;;;;;;6319875;28;19908;-67
2023/10/12 01:55:32;;;;;;;;;;;20.80;65.80;;;;;;6319815;28;19955;-67
2023/10/12 01:58:35;;;;;;;;;;;20.80;65.60;;;;;;6319937;28;19908;-68
2023/10/12 02:01:42;;;;;;;;;;;20.80;65.70;;;;;;6318219;28;20550;-68
2023/10/12 02:04:43;;;;;;;;;;;20.80;66.10;;;;;;6318053;28;19915;-68
2023/10/12 02:07:44;;;;;;;;;;;20.80;65.70;;;;;;6318576;28;19908;-67
2023/10/12 02:10:54;;;;;;;;;;;20.80;65.90;;;;;;6319444;28;19908;-67
2023/10/12 02:13:55;;;;;;;;;;;20.80;65.70;;;;;;6319386;28;19957;-67
2023/10/12 02:16:56;;;;;;;;;;;20.80;66.00;;;;;;6319449;28;19919;-68
2023/10/12 02:19:57;;;;;;;;;;;20.80;65.60;;;;;;6319006;28;19919;-67
2023/10/12 02:23:01;;;;;;;;;;;20.80;65.90;;;;;;6319129;28;19935;-68
2023/10/12 02:26:29;;;;;;;;;;;20.80;66.10;;;;;;6319344;28;19909;-67
2023/10/12 02:29:35;;;;;;;;;;;20.80;66.00;;;;;;6313395;28;19998;-67
2023/10/12 02:32:46;;;;;;;;;;;20.80;65.60;;;;;;6319285;28;19915;-67
2023/10/12 02:35:49;;;;;;;;;;;20.80;66.10;;;;;;6313502;28;19981;-68
2023/10/12 02:38:50;;;;;;;;;;;20.80;66.10;;;;;;6318554;28;19967;-67
2023/10/12 02:41:51;;;;;;;;;;;20.80;66.20;;;;;;6316972;28;19919;-68
2023/10/12 02:48:04;;;;;;;;;;;20.80;65.80;;;;;;6317199;28;19908;-67
2023/10/12 02:51:06;;;;;;;;;;;20.80;65.70;;;;;;6318775;28;19919;-67
2023/10/12 02:54:07;;;;;;;;;;;20.80;65.90;;;;;;6318291;28;20443;-67
2023/10/12 02:57:09;;;;;;;;;;;20.80;66.20;;;;;;6318216;28;19908;-68
2023/10/12 03:00:13;;;;;;;;;;;20.80;65.80;;;;;;6312008;28;19947;-68
2023/10/12 03:03:26;;;;;;;;;;;20.80;65.90;;;;;;6310739;28;19908;-67
2023/10/12 03:06:32;;;;;;;;;;;20.80;66.10;;;;;;6318209;28;19990;-68
2023/10/12 03:09:37;;;;;;;;;;;20.80;66.20;;;;;;6317376;28;20440;-68
2023/10/12 03:12:42;;;;;;;;;;;20.80;66.10;;;;;;6318333;28;20018;-68
2023/10/12 03:15:49;;;;;;;;;;;20.80;66.20;;;;;;6316497;28;19915;-67
2023/10/12 03:19:17;;;;;;;;;;;20.80;66.00;;;;;;6317940;28;19916;-67
2023/10/12 03:22:34;;;;;;;;;;;20.80;66.20;;;;;;6310753;28;19908;-67
2023/10/12 03:25:45;;;;;;;;;;;20.80;66.10;;;;;;6317993;28;19915;-68
2023/10/12 03:28:46;;;;;;;;;;;20.80;66.10;;;;;;6316440;28;19912;-67
2023/10/12 03:38:00;;;;;;;;;;;20.80;66.20;;;;;;6317837;28;19908;-67
2023/10/12 03:48:02;;;;;;;;;;;20.80;66.00;;;;;;6317720;28;19908;-68
2023/10/12 03:52:13;;;;;;;;;;;20.80;66.20;;;;;;6315896;28;19963;-68
2023/10/12 03:54:33;;;;;;;;;;;20.80;66.00;;;;;;6315307;28;19964;-68
2023/10/12 04:01:05;;;;;;;;;;;20.80;65.70;;;;;;6317629;28;20061;-68
2023/10/12 04:04:10;;;;;;;;;;;20.80;66.10;;;;;;6317772;28;19912;-68
2023/10/12 04:07:17;;;;;;;;;;;20.80;66.20;;;;;;6308888;28;20370;-68
2023/10/12 04:16:40;;;;;;;;;;;20.80;65.80;;;;;;6317759;28;20422;-68
2023/10/12 04:19:45;;;;;;;;;;;20.80;66.20;;;;;;6315370;28;19973;-68
2023/10/12 04:25:47;;;;;;;;;;;20.80;65.80;;;;;;6322157;28;19943;-68
2023/10/12 04:28:56;;;;;;;;;;;20.80;65.70;;;;;;6321822;28;19955;-68
2023/10/12 04:31:58;;;;;;;;;;;20.80;66.20;;;;;;6322094;28;20538;-69
2023/10/12 04:34:58;;;;;;;;;;;20.80;65.70;;;;;;6321845;28;19915;-68
2023/10/12 04:38:08;;;;;;;;;;;20.80;65.70;;;;;;6321833;28;19912;-68
2023/10/12 04:47:29;;;;;;;;;;;20.80;66.00;;;;;;6315511;28;20003;-68
2023/10/12 04:50:44;;;;;;;;;;;20.80;65.70;;;;;;6320903;28;19920;-68
2023/10/12 04:53:58;;;;;;;;;;;20.80;65.60;;;;;;6316212;28;19956;-68
2023/10/12 05:03:24;;;;;;;;;;;20.80;65.80;;;;;;6318053;28;19907;-68
2023/10/12 05:06:25;;;;;;;;;;;20.80;65.60;;;;;;6319289;28;20275;-67
2023/10/12 05:09:26;;;;;;;;;;;20.80;65.80;;;;;;6318094;28;19908;-67
2023/10/12 05:12:27;;;;;;;;;;;20.80;66.10;;;;;;6317932;28;19969;-68
2023/10/12 05:15:39;;;;;;;;;;;20.80;66.20;;;;;;6318671;28;19909;-68
2023/10/12 05:18:40;;;;;;;;;;;20.80;66.10;;;;;;6326133;28;19924;-68
2023/10/12 05:21:40;;;;;;;;;;;20.90;65.60;;;;;;6319062;28;20413;-68
2023/10/12 05:24:41;;;;;;;;;;;20.90;65.30;;;;;;6315355;28;20014;-68
2023/10/12 05:28:05;;;;;;;;;;;20.90;64.90;;;;;;6319776;28;19919;-68
2023/10/12 05:37:29;;;;;;;;;;;21.00;65.00;;;;;;6317038;28;19912;-67
2023/10/12 05:40:41;;;;;;;;;;;21.00;65.00;;;;;;6322496;28;19943;-68
2023/10/12 05:43:42;;;;;;;;;;;21.00;65.00;;;;;;6317668;28;20633;-68
2023/10/12 05:46:45;;;;;;;;;;;21.00;65.40;;;;;;6318910;28;19914;-67
2023/10/12 05:49:45;;;;;;;;;;;21.00;65.40;;;;;;6310317;28;19932;-68
2023/10/12 05:52:46;;;;;;;;;;;21.00;65.40;;;;;;6318137;28;19962;-67
2023/10/12 05:55:50;;;;;;;;;;;21.00;65.40;;;;;;6318192;28;19912;-67
2023/10/12 05:58:50;;;;;;;;;;;20.90;65.20;;;;;;6318387;28;19911;-67
2023/10/12 06:01:51;;;;;;;;;;;20.90;65.40;;;;;;6317887;28;19919;-67
2023/10/12 06:04:52;;;;;;;;;;;20.90;65.30;;;;;;6322051;28;20290;-67
2023/10/12 06:08:00;;;;;;;;;;;20.90;65.40;;;;;;6316473;28;20003;-67
2023/10/12 06:11:01;;;;;;;;;;;20.90;65.40;;;;;;6320017;28;19930;-67
2023/10/12 06:14:05;;;;;;;;;;;20.90;65.70;;;;;;6320566;28;19912;-67
2023/10/12 06:17:06;;;;;;;;;;;20.90;65.70;;;;;;6321323;28;19920;-67
2023/10/12 06:20:14;;;;;;;;;;;20.90;65.60;;;;;;6321491;28;19961;-67
2023/10/12 06:23:16;;;;;;;;;;;20.90;65.50;;;;;;6319682;28;19916;-67
2023/10/12 06:26:29;;;;;;;;;;;20.90;65.50;;;;;;6321234;28;19934;-67
2023/10/12 06:29:30;;;;;;;;;;;20.90;65.50;;;;;;6320945;28;19908;-67
2023/10/12 06:32:33;;;;;;;;;;;20.90;65.50;;;;;;6319866;28;19915;-67
2023/10/12 06:35:35;;;;;;;;;;;20.90;65.70;;;;;;6319704;28;19908;-68
2023/10/12 06:44:40;;;;;;;;;;;20.90;66.40;;;;;;6320404;28;19935;-67
2023/10/12 06:47:41;;;;;;;;;;;20.90;65.40;;;;;;6319258;28;20378;-67
2023/10/12 06:50:42;;;;;;;;;;;20.90;65.40;;;;;;6320729;28;19920;-68
2023/10/12 06:53:45;;;;;;;;;;;20.90;65.90;;;;;;6320679;28;20003;-67
2023/10/12 06:56:52;;;;;;;;;;;20.90;65.60;;;;;;6320682;28;19916;-67
2023/10/12 06:59:53;;;;;;;;;;;20.90;65.50;;;;;;6316647;28;19916;-67
2023/10/12 07:02:53;;;;;;;;;;;20.90;65.40;;;;;;6320751;28;20294;-67
2023/10/12 07:05:54;;;;;;;;;;;20.90;65.40;;;;;;6320823;28;19915;-67
2023/10/12 07:08:55;;;;;;;;;;;20.90;65.70;;;;;;6320152;28;20338;-67
2023/10/12 07:11:56;;;;;;;;;;;20.90;65.60;;;;;;6320488;28;19987;-67
2023/10/12 07:14:57;;;;;;;;;;;20.80;65.30;;;;;;6319880;28;20366;-67
2023/10/12 07:17:58;;;;;;;;;;;20.90;65.40;;;;;;6320429;28;19934;-67
2023/10/12 07:20:59;;;;;;;;;;;20.90;65.60;;;;;;6316007;28;20357;-67
2023/10/12 07:24:01;;;;;;;;;;;20.90;65.40;;;;;;6319101;28;19916;-68
2023/10/12 07:27:21;;;;;;;;;;;20.90;65.50;;;;;;6311971;28;19935;-67
2023/10/12 07:30:33;;;;;;;;;;;20.90;65.30;;;;;;6313043;28;19930;-67
2023/10/12 07:33:33;;;;;;;;;;;20.90;65.30;;;;;;6311862;28;20794;-67
2023/10/12 07:39:42;;;;;;;;;;;20.90;65.40;;;;;;6314576;28;19973;-67
2023/10/12 07:42:46;;;;;;;;;;;20.90;65.40;;;;;;6312956;28;19912;-67
2023/10/12 07:45:50;;;;;;;;;;;20.90;65.40;;;;;;6318193;28;19963;-67
2023/10/12 07:48:51;;;;;;;;;;;20.90;66.00;;;;;;6318290;28;19908;-67
2023/10/12 07:55:12;;;;;;;;;;;20.90;66.10;;;;;;6319089;28;19908;-67
2023/10/12 07:58:12;;;;;;;;;;;20.90;66.00;;;;;;6319671;28;19912;-67
2023/10/12 08:01:38;;;;;;;;;;;20.90;66.20;;;;;;6322653;28;19966;-67
2023/10/12 08:04:39;;;;;;;;;;;20.90;66.10;;;;;;6322977;28;19990;-68
2023/10/12 08:07:59;;;;;;;;;;;20.90;66.20;;;;;;6321106;28;19908;-67
2023/10/12 08:11:00;;;;;;;;;;;20.90;65.80;;;;;;6321991;28;20035;-67
2023/10/12 08:14:39;;;;;;;;;;;20.90;65.80;;;;;;6322804;28;19916;-67
2023/10/12 08:17:33;;;;;;;;;;;20.90;65.80;;;;;;6326080;28;19932;-67
2023/10/12 08:20:53;;;;;;;;;;;20.90;65.80;;;;;;6320252;28;19980;-67
2023/10/12 08:27:20;;;;;;;;;;;20.90;65.80;;;;;;6322918;28;20605;-67
2023/10/12 08:30:24;;;;;;;;;;;20.90;65.80;;;;;;6322529;28;19919;-67
2023/10/12 08:37:17;;;;;;;;;;;20.90;66.10;;;;;;6323380;28;19947;-67
2023/10/12 08:40:20;;;;;;;;;;;20.90;66.50;;;;;;6322502;28;20046;-67
2023/10/12 08:43:42;;;;;;;;;;;20.90;66.60;;;;;;6321099;28;19966;-67
2023/10/12 08:46:56;;;;;;;;;;;20.90;66.60;;;;;;6322010;28;20434;-67
2023/10/12 08:53:04;;;;;;;;;;;20.90;66.60;;;;;;6323581;28;20405;-67
2023/10/12 08:56:08;;;;;;;;;;;20.90;66.40;;;;;;6319688;28;19955;-67
2023/10/12 08:59:09;;;;;;;;;;;20.90;66.40;;;;;;6318262;28;20383;-67
2023/10/12 09:02:19;;;;;;;;;;;20.90;66.40;;;;;;6322703;28;19914;-67
2023/10/12 09:05:30;;;;;;;;;;;20.90;65.80;;;;;;6319777;28;20098;-67
2023/10/12 09:11:34;;;;;;;;;;;20.90;66.10;;;;;;6323449;28;19999;-67
2023/10/12 09:14:35;;;;;;;;;;;20.90;65.80;;;;;;6323037;28;19915;-67
2023/10/12 09:17:40;;;;;;;;;;;20.90;66.20;;;;;;6323601;28;19912;-67
2023/10/12 09:20:45;;;;;;;;;;;20.90;65.70;;;;;;6323132;28;19912;-67
2023/10/12 09:23:52;;;;;;;;;;;20.90;65.60;;;;;;6321819;28;19908;-68
2023/10/12 09:26:59;;;;;;;;;;;20.90;65.70;;;;;;6321586;28;20382;-67
2023/10/12 09:30:01;;;;;;;;;;;20.90;65.80;;;;;;6322558;28;19915;-67
2023/10/12 09:33:10;;;;;;;;;;;20.90;65.90;;;;;;6322584;28;19912;-67
2023/10/12 09:36:11;;;;;;;;;;;20.90;66.10;;;;;;6322542;28;19931;-67
2023/10/12 09:39:15;;;;;;;;;;;20.90;66.30;;;;;;6322518;28;19920;-67
2023/10/12 09:42:26;;;;;;;;;;;20.90;66.40;;;;;;6321090;28;20357;-67
2023/10/12 09:45:33;;;;;;;;;;;20.90;66.50;;;;;;6321443;28;19908;-67
2023/10/12 09:48:38;;;;;;;;;;;20.90;66.30;;;;;;6317085;28;20379;-67
2023/10/12 09:51:45;;;;;;;;;;;20.80;66.30;;;;;;6321931;28;19912;-67
2023/10/12 09:54:49;;;;;;;;;;;20.90;66.20;;;;;;6322099;28;20270;-67
2023/10/12 09:57:51;;;;;;;;;;;20.90;66.20;;;;;;6322079;28;19916;-67
2023/10/12 10:01:15;;;;;;;;;;;20.90;66.20;;;;;;6321752;28;19919;-67
2023/10/12 10:07:27;;;;;;;;;;;20.90;65.90;;;;;;6322022;28;19917;-67
2023/10/12 10:10:31;;;;;;;;;;;20.90;66.20;;;;;;6321751;28;19970;-67
2023/10/12 10:13:39;;;;;;;;;;;20.90;66.30;;;;;;6320498;28;19919;-67
2023/10/12 10:16:46;;;;;;;;;;;20.80;66.40;;;;;;6321557;28;19912;-67
2023/10/12 10:20:04;;;;;;;;;;;20.80;66.10;;;;;;6320295;28;19912;-67
2023/10/12 10:23:14;;;;;;;;;;;20.80;66.50;;;;;;6321516;28;19908;-67
2023/10/12 10:26:24;;;;;;;;;;;20.90;65.80;;;;;;6313053;28;19908;-67
2023/10/12 10:29:53;;;;;;;;;;;20.90;65.60;;;;;;6321452;28;19915;-67
2023/10/12 10:33:17;;;;;;;;;;;20.90;65.70;;;;;;6319821;28;19962;-67
2023/10/12 10:36:27;;;;;;;;;;;20.90;65.60;;;;;;6313347;28;19914;-67
2023/10/12 10:39:30;;;;;;;;;;;20.80;65.40;;;;;;6320632;28;20371;-67
2023/10/12 10:42:32;;;;;;;;;;;20.80;65.60;;;;;;6321201;28;19947;-67
2023/10/12 10:45:37;;;;;;;;;;;20.90;65.60;;;;;;6320317;28;20809;-67
2023/10/12 10:48:38;;;;;;;;;;;20.80;65.50;;;;;;6321015;28;19912;-67
2023/10/12 10:51:42;;;;;;;;;;;20.80;65.70;;;;;;6319732;28;20336;-67
2023/10/12 10:55:10;;;;;;;;;;;20.80;65.60;;;;;;6314422;28;19912;-67
2023/10/12 10:58:07;;;;;;;;;;;20.80;65.50;;;;;;6320012;28;20291;-67
2023/10/12 11:01:12;;;;;;;;;;;20.80;65.80;;;;;;6320423;28;19928;-67
2023/10/12 11:07:32;;;;;;;;;;;20.80;66.30;;;;;;6320135;28;19908;-67
2023/10/12 11:10:34;;;;;;;;;;;20.80;66.50;;;;;;6318616;28;19923;-67
2023/10/12 11:13:38;;;;;;;;;;;20.80;66.30;;;;;;6320007;28;19912;-67
2023/10/12 11:16:43;;;;;;;;;;;20.80;65.70;;;;;;6320048;28;19908;-68
2023/10/12 11:19:44;;;;;;;;;;;20.80;67.10;;;;;;6319977;28;20375;-67
2023/10/12 11:22:45;;;;;;;;;;;20.80;65.40;;;;;;6319876;28;19918;-67
2023/10/12 11:25:46;;;;;;;;;;;20.80;65.40;;;;;;6315502;28;19919;-67
2023/10/12 11:29:00;;;;;;;;;;;20.80;65.40;;;;;;6314755;28;19908;-67
2023/10/12 11:32:16;;;;;;;;;;;20.80;66.20;;;;;;6319535;28;19916;-67
2023/10/12 11:35:17;;;;;;;;;;;20.80;66.10;;;;;;6312285;28;19908;-67
2023/10/12 11:38:18;;;;;;;;;;;20.80;65.60;;;;;;6319646;28;20374;-67
2023/10/12 11:41:21;;;;;;;;;;;20.80;66.00;;;;;;6318311;28;20228;-67
2023/10/12 11:44:32;;;;;;;;;;;20.80;67.00;;;;;;6318193;28;19915;-68
2023/10/12 11:47:37;;;;;;;;;;;20.80;66.00;;;;;;6319711;28;19908;-68
2023/10/12 11:50:38;;;;;;;;;;;20.80;65.90;;;;;;6318127;28;20017;-68
2023/10/12 11:53:39;;;;;;;;;;;20.80;66.20;;;;;;6319665;28;19914;-68
2023/10/12 11:56:43;;;;;;;;;;;20.80;66.20;;;;;;6318364;28;19954;-67
2023/10/12 11:59:44;;;;;;;;;;;20.80;66.40;;;;;;6315438;28;20371;-67
2023/10/12 12:02:44;;;;;;;;;;;20.80;66.50;;;;;;6311042;28;19961;-68
2023/10/12 12:05:51;;;;;;;;;;;20.80;66.20;;;;;;6319986;28;20740;-65
2023/10/12 12:08:56;;;;;;;;;;;20.80;66.20;;;;;;6318160;28;19908;-65
2023/10/12 12:11:57;;;;;;;;;;;20.80;66.10;;;;;;6319824;28;19908;-65
2023/10/12 12:14:58;;;;;;;;;;;20.80;66.10;;;;;;6317320;28;19944;-65
2023/10/12 12:17:59;;;;;;;;;;;20.80;65.70;;;;;;6319083;28;19916;-65
2023/10/12 12:21:04;;;;;;;;;;;20.80;65.80;;;;;;6319271;28;20348;-65
2023/10/12 12:24:25;;;;;;;;;;;20.90;66.20;;;;;;6319188;28;19947;-65
2023/10/12 12:27:37;;;;;;;;;;;20.90;65.80;;;;;;6317675;28;19919;-68
2023/10/12 12:30:46;;;;;;;;;;;20.80;65.80;;;;;;6319014;28;19939;-68
2023/10/12 12:33:47;;;;;;;;;;;20.90;65.70;;;;;;6318922;28;19962;-68
2023/10/12 12:36:48;;;;;;;;;;;20.80;65.80;;;;;;6319377;28;20290;-68
2023/10/12 12:43:12;;;;;;;;;;;20.90;66.60;;;;;;6319625;28;19912;-68
2023/10/12 12:46:13;;;;;;;;;;;20.80;66.50;;;;;;6323462;28;20390;-67
2023/10/12 12:49:14;;;;;;;;;;;20.80;66.20;;;;;;6323718;28;19944;-65
2023/10/12 12:52:17;;;;;;;;;;;20.80;66.20;;;;;;6322946;28;19908;-65
2023/10/12 12:55:21;;;;;;;;;;;20.90;66.40;;;;;;6321968;28;19919;-65
2023/10/12 12:58:24;;;;;;;;;;;20.80;66.20;;;;;;6323777;28;19912;-65
2023/10/12 13:01:27;;;;;;;;;;;20.80;66.00;;;;;;6322849;28;20367;-65
2023/10/12 13:04:28;;;;;;;;;;;20.80;66.10;;;;;;6323659;28;20654;-65
2023/10/12 13:07:29;;;;;;;;;;;20.80;66.10;;;;;;6322864;28;19908;-65
2023/10/12 13:10:29;;;;;;;;;;;20.80;65.80;;;;;;6322936;28;19915;-65
2023/10/12 13:13:39;;;;;;;;;;;20.90;65.70;;;;;;6322952;28;19908;-65
2023/10/12 13:16:40;;;;;;;;;;;20.90;66.10;;;;;;6322297;28;19986;-68
2023/10/12 13:19:44;;;;;;;;;;;20.80;65.70;;;;;;6314310;28;20387;-67
2023/10/12 13:22:44;;;;;;;;;;;20.80;65.60;;;;;;6321729;28;19908;-67
2023/10/12 13:25:45;;;;;;;;;;;20.90;66.50;;;;;;6321217;28;19923;-68
2023/10/12 13:28:46;;;;;;;;;;;20.80;65.60;;;;;;6322964;28;20425;-68
2023/10/12 13:31:46;;;;;;;;;;;20.80;65.40;;;;;;6322278;28;19908;-69
2023/10/12 13:34:47;;;;;;;;;;;20.80;65.50;;;;;;6313073;28;19908;-67
2023/10/12 13:37:48;;;;;;;;;;;20.90;65.80;;;;;;6322428;28;20014;-68
2023/10/12 13:40:50;;;;;;;;;;;20.90;66.00;;;;;;6320909;28;19920;-67
2023/10/12 13:43:51;;;;;;;;;;;20.80;65.50;;;;;;6322208;28;19908;-68
2023/10/12 13:46:51;;;;;;;;;;;20.90;65.60;;;;;;6321812;28;20009;-67
2023/10/12 13:49:54;;;;;;;;;;;20.80;65.60;;;;;;6322115;28;19908;-67
2023/10/12 13:52:54;;;;;;;;;;;20.80;65.50;;;;;;6321594;28;19954;-67
2023/10/12 13:55:56;;;;;;;;;;;20.80;65.40;;;;;;6320604;28;19911;-68
2023/10/12 13:58:59;;;;;;;;;;;20.80;65.60;;;;;;6321568;28;20508;-68
2023/10/12 14:02:05;;;;;;;;;;;20.90;65.60;;;;;;6321629;28;20030;-67
2023/10/12 14:05:08;;;;;;;;;;;20.80;65.40;;;;;;6321541;28;19919;-67
2023/10/12 14:08:09;;;;;;;;;;;20.90;65.60;;;;;;6320267;28;19908;-67
2023/10/12 14:11:13;;;;;;;;;;;20.80;65.50;;;;;;6321677;28;19936;-68
2023/10/12 14:14:15;;;;;;;;;;;20.80;65.50;;;;;;6313439;28;20002;-68
2023/10/12 14:17:16;;;;;;;;;;;20.80;65.50;;;;;;6321768;28;20027;-68
2023/10/12 14:20:20;;;;;;;;;;;20.80;65.40;;;;;;6320910;28;19923;-67
2023/10/12 14:23:25;;;;;;;;;;;20.80;65.60;;;;;;6320128;28;19908;-68
2023/10/12 14:26:26;;;;;;;;;;;20.80;65.50;;;;;;6321213;28;19995;-67
2023/10/12 14:29:29;;;;;;;;;;;20.80;65.50;;;;;;6321049;28;19918;-67
2023/10/12 14:32:30;;;;;;;;;;;20.80;65.30;;;;;;6312764;28;19916;-67
2023/10/12 14:35:32;;;;;;;;;;;20.80;65.20;;;;;;6321058;28;20669;-67
2023/10/12 14:38:33;;;;;;;;;;;20.80;65.40;;;;;;6319472;28;19916;-67
2023/10/12 14:41:35;;;;;;;;;;;20.80;65.40;;;;;;6320889;28;20260;-68
2023/10/12 14:44:36;;;;;;;;;;;20.90;65.70;;;;;;6319593;28;19916;-67
2023/10/12 14:47:37;;;;;;;;;;;20.90;65.60;;;;;;6321050;28;19926;-68
2023/10/12 14:50:47;;;;;;;;;;;20.90;65.60;;;;;;6320215;28;19908;-67
2023/10/12 14:53:50;;;;;;;;;;;20.80;65.40;;;;;;6315212;28;19954;-68
2023/10/12 14:56:53;;;;;;;;;;;20.80;65.30;;;;;;6315529;28;19909;-67
2023/10/12 14:59:55;;;;;;;;;;;20.80;65.30;;;;;;6317275;28;20011;-68
2023/10/12 15:02:57;;;;;;;;;;;20.80;65.40;;;;;;6320592;28;20090;-67
2023/10/12 15:06:00;;;;;;;;;;;20.80;65.30;;;;;;6319741;28;19912;-67
2023/10/12 15:09:03;;;;;;;;;;;20.90;65.40;;;;;;6320064;28;19919;-68
2023/10/12 15:12:05;;;;;;;;;;;20.90;65.60;;;;;;6318867;28;19908;-68
2023/10/12 15:15:08;;;;;;;;;;;20.90;65.40;;;;;;6319052;28;19922;-67
2023/10/12 15:18:09;;;;;;;;;;;20.80;65.40;;;;;;6320010;28;19908;-67
2023/10/12 15:21:11;;;;;;;;;;;20.90;65.40;;;;;;6316006;28;20480;-68
2023/10/12 15:24:14;;;;;;;;;;;20.80;65.30;;;;;;6319358;28;20404;-67
2023/10/12 15:27:15;;;;;;;;;;;20.80;66.20;;;;;;6316329;28;19908;-67
2023/10/12 15:30:16;;;;;;;;;;;20.90;65.40;;;;;;6308012;28;20386;-68
2023/10/12 15:33:17;;;;;;;;;;;20.90;65.30;;;;;;6312092;28;19915;-68
2023/10/12 15:36:19;;;;;;;;;;;20.90;65.30;;;;;;6320007;28;19912;-67
2023/10/12 15:39:20;;;;;;;;;;;20.80;65.40;;;;;;6321878;28;19920;-68
2023/10/12 15:42:20;;;;;;;;;;;20.90;66.00;;;;;;6317484;28;20401;-68
2023/10/12 15:45:25;;;;;;;;;;;20.80;65.30;;;;;;6317059;28;19915;-67
2023/10/12 15:48:29;;;;;;;;;;;20.80;65.70;;;;;;6314158;28;19919;-68
2023/10/12 15:51:29;;;;;;;;;;;20.80;65.40;;;;;;6316901;28;19913;-68
2023/10/12 15:54:31;;;;;;;;;;;20.90;65.60;;;;;;6329397;28;19978;-68
2023/10/12 15:57:32;;;;;;;;;;;20.80;65.30;;;;;;6321944;28;19962;-67
2023/10/12 16:00:32;;;;;;;;;;;20.80;65.40;;;;;;6316636;28;19915;-68
2023/10/12 16:03:33;;;;;;;;;;;20.90;65.40;;;;;;6317047;28;19912;-65
2023/10/12 16:06:34;;;;;;;;;;;20.90;65.60;;;;;;6316998;28;19912;-65
2023/10/12 16:09:36;;;;;;;;;;;20.80;65.40;;;;;;6316484;28;19916;-65
2023/10/12 16:12:37;;;;;;;;;;;20.90;65.70;;;;;;6315345;28;19916;-65
2023/10/12 16:15:40;;;;;;;;;;;20.90;65.60;;;;;;6315438;28;20739;-65
2023/10/12 16:18:41;;;;;;;;;;;20.80;65.60;;;;;;6319276;28;19908;-65
2023/10/12 16:21:41;;;;;;;;;;;20.90;65.60;;;;;;6319798;28;19912;-65
2023/10/12 16:24:42;;;;;;;;;;;20.90;65.50;;;;;;6317230;28;20037;-65
2023/10/12 16:27:45;;;;;;;;;;;20.80;65.70;;;;;;6320133;28;19931;-65
2023/10/12 16:30:46;;;;;;;;;;;20.90;65.60;;;;;;6316248;28;19909;-65
2023/10/12 16:33:47;;;;;;;;;;;20.90;65.60;;;;;;6319641;28;19915;-68
2023/10/12 16:36:49;;;;;;;;;;;20.90;65.60;;;;;;6319755;28;19943;-68
2023/10/12 16:39:53;;;;;;;;;;;20.90;65.70;;;;;;6315661;28;19921;-67
2023/10/12 16:42:54;;;;;;;;;;;20.90;65.80;;;;;;6320870;28;19961;-72
2023/10/12 16:45:57;;;;;;;;;;;20.90;65.70;;;;;;6314206;28;19908;-70
2023/10/12 16:48:57;;;;;;;;;;;20.90;65.70;;;;;;6317874;28;19931;-70
2023/10/12 16:52:00;;;;;;;;;;;20.90;65.70;;;;;;6320540;28;21064;-70
2023/10/12 16:55:00;;;;;;;;;;;20.90;65.80;;;;;;6324037;28;19912;-70
2023/10/12 16:58:01;;;;;;;;;;;20.90;65.80;;;;;;6322775;28;19912;-70
2023/10/12 17:01:01;;;;;;;;;;;20.90;66.20;;;;;;6317170;28;20398;-67
2023/10/12 17:04:27;;;;;;;;;;;20.90;66.00;;;;;;6313525;28;19966;-69
2023/10/12 17:07:27;;;;;;;;;;;20.90;65.70;;;;;;6316407;28;19908;-70
2023/10/12 17:10:30;;;;;;;;;;;20.90;66.20;;;;;;6317910;28;20385;-70
2023/10/12 17:13:32;;;;;;;;;;;20.90;66.50;;;;;;6323473;28;19915;-69
2023/10/12 17:16:34;;;;;;;;;;;20.90;66.00;;;;;;6323991;28;19949;-70
2023/10/12 17:19:35;;;;;;;;;;;20.90;66.30;;;;;;6324648;28;19920;-70
2023/10/12 17:22:37;;;;;;;;;;;21.00;66.50;;;;;;6317689;28;19965;-70
2023/10/12 17:25:37;;;;;;;;;;;21.00;66.60;;;;;;6323944;28;19958;-74
2023/10/12 17:28:38;;;;;;;;;;;21.00;66.80;;;;;;6325041;28;20332;-70
2023/10/12 17:31:39;;;;;;;;;;;21.00;67.00;;;;;;6324752;28;19915;-69
2023/10/12 17:34:39;;;;;;;;;;;21.00;67.40;;;;;;6320438;28;19908;-70
2023/10/12 17:37:40;;;;;;;;;;;21.10;67.20;;;;;;6319795;28;19912;-70
2023/10/12 17:40:41;;;;;;;;;;;21.00;68.00;;;;;;6319015;28;19920;-73
2023/10/12 17:43:41;;;;;;;;;;;21.10;68.50;;;;;;6333023;28;20418;-71
2023/10/12 17:46:46;;;;;;;;;;;21.10;69.00;;;;;;6319117;28;19908;-72
2023/10/12 17:49:47;;;;;;;;;;;21.10;69.50;;;;;;6318587;28;20516;-72
2023/10/12 17:52:47;;;;;;;;;;;21.10;69.20;;;;;;6314684;28;19916;-76
2023/10/12 17:55:48;;;;;;;;;;;21.10;68.20;;;;;;6317561;28;19998;-76
2023/10/12 17:58:49;;;;;;;;;;;21.10;68.60;;;;;;6315080;28;19908;-71
2023/10/12 18:01:50;;;;;;;;;;;21.10;68.10;;;;;;6315072;28;19917;-70
2023/10/12 18:04:53;;;;;;;;;;;21.10;68.10;;;;;;6315541;28;19908;-72
2023/10/12 18:07:55;;;;;;;;;;;21.10;68.10;;;;;;6320516;28;19912;-72
2023/10/12 18:11:03;;;;;;;;;;;21.00;68.10;;;;;;6314438;28;19979;-73
2023/10/12 18:14:04;;;;;;;;;;;21.00;68.90;;;;;;6319811;28;19947;-72
2023/10/12 18:17:05;;;;;;;;;;;21.00;68.10;;;;;;6316887;28;19912;-71
2023/10/12 18:20:14;;;;;;;;;;;21.00;68.10;;;;;;6312882;28;19959;-70
2023/10/12 18:23:16;;;;;;;;;;;21.00;68.10;;;;;;6319001;28;19951;-69
2023/10/12 18:26:16;;;;;;;;;;;20.90;67.70;;;;;;6318335;28;19966;-69
2023/10/12 18:29:17;;;;;;;;;;;20.90;67.10;;;;;;6317093;28;20461;-68
2023/10/12 18:32:21;;;;;;;;;;;20.90;66.70;;;;;;6317599;28;19922;-68
2023/10/12 18:35:21;;;;;;;;;;;20.90;66.20;;;;;;6321170;28;20375;-67
2023/10/12 18:38:22;;;;;;;;;;;20.90;66.00;;;;;;6322064;28;19916;-66
2023/10/12 18:41:23;;;;;;;;;;;20.90;66.00;;;;;;6316205;28;19916;-68
2023/10/12 18:44:23;;;;;;;;;;;20.90;65.80;;;;;;6333754;28;19911;-68
2023/10/12 18:47:27;;;;;;;;;;;20.90;66.30;;;;;;6334667;28;19915;-68
2023/10/12 18:50:28;;;;;;;;;;;20.90;66.20;;;;;;6316886;28;20006;-70
2023/10/12 18:53:28;;;;;;;;;;;20.90;66.00;;;;;;6313976;28;20019;-69
2023/10/12 18:56:29;;;;;;;;;;;20.90;65.70;;;;;;6325310;28;19908;-68
2023/10/12 18:59:30;;;;;;;;;;;21.00;66.00;;;;;;6316120;28;19912;-70
2023/10/12 19:02:30;;;;;;;;;;;21.00;66.10;;;;;;6313995;28;19982;-68
2023/10/12 19:05:34;;;;;;;;;;;21.00;65.60;;;;;;6316733;28;20053;-68
2023/10/12 19:08:35;;;;;;;;;;;21.00;66.00;;;;;;6315562;28;19965;-68
2023/10/12 19:11:36;;;;;;;;;;;21.00;66.40;;;;;;6312654;28;19920;-66
2023/10/12 19:14:36;;;;;;;;;;;20.90;66.60;;;;;;6321243;28;19908;-65